This is the latest recevied weather packets stored in our database for station/object W8RD. If no packets are shown the sender has not sent any weather packets the latest 10 day(s).
| Time | Temp. | Humidity | Pressure | Rain* | Wind** | Luminosity | Snow |
|---|---|---|---|---|---|---|---|
| 1777819239 | 20.56° C | 70% | 1019.5 hPa | 0 mm | - | 93 W/m² | - |
| 1777818638 | 20.56° C | 68% | 1019.6 hPa | 0 mm | - | 114 W/m² | - |
| 1777818037 | 20.56° C | 69% | 1019.5 hPa | 0 mm | - | 119 W/m² | - |
| 1777817432 | 20° C | 72% | 1019.5 hPa | 0 mm | - | 87 W/m² | - |
| 1777816831 | 20° C | 72% | 1019.2 hPa | 0 mm | - | 113 W/m² | - |
| 1777816231 | 20° C | 74% | 1019.2 hPa | 0 mm | - | 112 W/m² | - |
| 1777815626 | 19.44° C | 74% | 1019 hPa | 0 mm | - | 106 W/m² | - |
| 1777815026 | 19.44° C | 74% | 1018.8 hPa | 0 mm | - | 111 W/m² | - |
| 1777814425 | 19.44° C | 77% | 1018.7 hPa | 0 mm | - | 102 W/m² | - |
| 1777813819 | 18.89° C | 80% | 1018.8 hPa | 0 mm | - | 98 W/m² | - |
| 1777813214 | 18.33° C | 80% | 1018.8 hPa | 0 mm | - | 78 W/m² | - |
| 1777812614 | 18.33° C | 81% | 1018.5 hPa | 0 mm | - | 76 W/m² | - |
| 1777812009 | 17.78° C | 84% | 1018.5 hPa | 0 mm | - | 61 W/m² | - |
| 1777811409 | 17.78° C | 84% | 1018.2 hPa | 0 mm | - | 53 W/m² | - |
| 1777810809 | 17.78° C | 85% | 1018.2 hPa | 0 mm | - | 34 W/m² | - |
| 1777810208 | 17.78° C | 85% | 1018.1 hPa | 0 mm | - | 40 W/m² | - |
| 1777809608 | 17.78° C | 86% | 1018 hPa | 0 mm | - | 33 W/m² | - |
| 1777809009 | 17.78° C | 86% | 1017.8 hPa | 0 mm | - | 26 W/m² | - |
| 1777808408 | 17.78° C | 86% | 1017.6 hPa | 0 mm | - | 19 W/m² | - |
| 1777807804 | 17.78° C | 86% | 1017.8 hPa | 0 mm | - | 18 W/m² | - |
| 1777807203 | 17.78° C | 86% | 1017.7 hPa | 0 mm | - | 9 W/m² | - |
| 1777806602 | 17.78° C | 86% | 1017.8 hPa | 0 mm | - | 5 W/m² | - |
| 1777806001 | 17.78° C | 85% | 1017.3 hPa | 0 mm | - | 2 W/m² | - |
| 1777805401 | 17.78° C | 85% | 1017.5 hPa | 0 mm | - | 1 W/m² | - |
| 1777804797 | 17.78° C | 85% | 1017.2 hPa | 0 mm | - | 0 W/m² | - |
* Rain latest hour (hover to see other rain measurements)
** Current wind speed in m/s (hover to see current wind gust speed)